sensor_id;sensor_type;location;lat;lon;timestamp;pressure;altitude;pressure_sealevel;temperature;humidity
34961;BME280;30789;52.030;7.110;2023-04-28T00:01:49;100662.16;;;9.18;51.71
34961;BME280;30789;52.030;7.110;2023-04-28T00:04:16;100661.56;;;8.98;52.92
34961;BME280;30789;52.030;7.110;2023-04-28T00:06:42;100652.94;;;9.03;53.09
34961;BME280;30789;52.030;7.110;2023-04-28T00:09:08;100661.69;;;9.12;52.44
34961;BME280;30789;52.030;7.110;2023-04-28T00:11:37;100668.31;;;9.08;52.73
34961;BME280;30789;52.030;7.110;2023-04-28T00:14:03;100649.81;;;9.05;52.60
34961;BME280;30789;52.030;7.110;2023-04-28T00:16:30;100643.94;;;9.06;52.55
34961;BME280;30789;52.030;7.110;2023-04-28T00:18:56;100636.13;;;9.08;51.80
34961;BME280;30789;52.030;7.110;2023-04-28T00:21:23;100644.53;;;9.22;51.72
34961;BME280;30789;52.030;7.110;2023-04-28T00:23:49;100645.56;;;9.11;52.48
34961;BME280;30789;52.030;7.110;2023-04-28T00:26:16;100649.81;;;9.05;52.26
34961;BME280;30789;52.030;7.110;2023-04-28T00:28:43;100640.44;;;9.09;52.43
34961;BME280;30789;52.030;7.110;2023-04-28T00:31:10;100624.00;;;9.13;52.21
34961;BME280;30789;52.030;7.110;2023-04-28T00:33:37;100622.28;;;8.98;52.94
34961;BME280;30789;52.030;7.110;2023-04-28T00:36:04;100620.59;;;8.90;53.40
34961;BME280;30789;52.030;7.110;2023-04-28T00:38:31;100610.66;;;8.78;53.79
34961;BME280;30789;52.030;7.110;2023-04-28T00:40:57;100611.28;;;8.98;53.19
34961;BME280;30789;52.030;7.110;2023-04-28T00:43:23;100610.94;;;9.03;52.31
34961;BME280;30789;52.030;7.110;2023-04-28T00:45:51;100620.69;;;8.97;52.72
34961;BME280;30789;52.030;7.110;2023-04-28T00:48:18;100611.59;;;8.93;52.78
34961;BME280;30789;52.030;7.110;2023-04-28T00:50:46;100597.03;;;8.89;53.12
34961;BME280;30789;52.030;7.110;2023-04-28T00:53:13;100596.56;;;8.83;53.61
34961;BME280;30789;52.030;7.110;2023-04-28T00:55:40;100598.97;;;8.88;52.93
34961;BME280;30789;52.030;7.110;2023-04-28T00:58:07;100598.13;;;8.81;53.56
34961;BME280;30789;52.030;7.110;2023-04-28T01:00:33;100587.94;;;8.85;53.63
34961;BME280;30789;52.030;7.110;2023-04-28T01:03:01;100586.91;;;8.96;52.88
34961;BME280;30789;52.030;7.110;2023-04-28T01:05:29;100590.09;;;9.02;52.28
34961;BME280;30789;52.030;7.110;2023-04-28T01:07:55;100586.03;;;8.89;52.43
34961;BME280;30789;52.030;7.110;2023-04-28T01:10:22;100580.78;;;9.10;52.37
34961;BME280;30789;52.030;7.110;2023-04-28T01:12:48;100572.78;;;8.98;52.59
34961;BME280;30789;52.030;7.110;2023-04-28T01:15:16;100569.28;;;9.01;52.44
34961;BME280;30789;52.030;7.110;2023-04-28T01:17:44;100571.72;;;9.09;52.03
34961;BME280;30789;52.030;7.110;2023-04-28T01:20:12;100572.47;;;9.03;52.32
34961;BME280;30789;52.030;7.110;2023-04-28T01:22:38;100569.13;;;8.87;53.02
34961;BME280;30789;52.030;7.110;2023-04-28T01:25:07;100562.09;;;8.89;52.93
34961;BME280;30789;52.030;7.110;2023-04-28T01:27:33;100563.03;;;9.04;52.15
34961;BME280;30789;52.030;7.110;2023-04-28T01:30:00;100559.72;;;8.88;53.10
34961;BME280;30789;52.030;7.110;2023-04-28T01:32:26;100555.72;;;8.82;53.29
34961;BME280;30789;52.030;7.110;2023-04-28T01:34:52;100553.13;;;8.92;53.27
34961;BME280;30789;52.030;7.110;2023-04-28T01:37:19;100554.53;;;9.16;52.12
34961;BME280;30789;52.030;7.110;2023-04-28T01:39:45;100558.44;;;9.15;52.13
34961;BME280;30789;52.030;7.110;2023-04-28T01:42:13;100557.16;;;9.05;52.47
34961;BME280;30789;52.030;7.110;2023-04-28T01:44:40;100546.97;;;9.06;52.33
34961;BME280;30789;52.030;7.110;2023-04-28T01:47:06;100543.00;;;9.03;52.30
34961;BME280;30789;52.030;7.110;2023-04-28T01:49:33;100526.06;;;8.98;53.20
34961;BME280;30789;52.030;7.110;2023-04-28T01:52:00;100534.75;;;9.00;52.99
34961;BME280;30789;52.030;7.110;2023-04-28T01:54:26;100520.94;;;8.96;53.30
34961;BME280;30789;52.030;7.110;2023-04-28T01:56:53;100524.78;;;8.88;53.49
34961;BME280;30789;52.030;7.110;2023-04-28T01:59:21;100523.47;;;9.15;52.78
34961;BME280;30789;52.030;7.110;2023-04-28T02:01:47;100524.91;;;8.99;53.52
34961;BME280;30789;52.030;7.110;2023-04-28T02:04:14;100518.72;;;9.09;52.82
34961;BME280;30789;52.030;7.110;2023-04-28T02:06:40;100519.41;;;8.99;53.56
34961;BME280;30789;52.030;7.110;2023-04-28T02:09:07;100516.66;;;8.99;53.85
34961;BME280;30789;52.030;7.110;2023-04-28T02:11:33;100525.66;;;8.96;53.89
34961;BME280;30789;52.030;7.110;2023-04-28T02:14:00;100521.75;;;8.97;53.79
34961;BME280;30789;52.030;7.110;2023-04-28T02:16:27;100517.03;;;8.97;54.54
34961;BME280;30789;52.030;7.110;2023-04-28T02:18:54;100513.16;;;9.02;53.99
34961;BME280;30789;52.030;7.110;2023-04-28T02:21:20;100513.41;;;8.90;54.67
34961;BME280;30789;52.030;7.110;2023-04-28T02:23:47;100510.47;;;9.09;53.98
34961;BME280;30789;52.030;7.110;2023-04-28T02:26:14;100509.53;;;8.94;55.00
34961;BME280;30789;52.030;7.110;2023-04-28T02:28:41;100515.38;;;8.89;55.64
34961;BME280;30789;52.030;7.110;2023-04-28T02:31:09;100512.22;;;8.87;55.36
34961;BME280;30789;52.030;7.110;2023-04-28T02:33:37;100511.91;;;8.92;55.45
34961;BME280;30789;52.030;7.110;2023-04-28T02:36:04;100511.25;;;9.06;55.15
34961;BME280;30789;52.030;7.110;2023-04-28T02:38:31;100504.94;;;9.05;55.12
34961;BME280;30789;52.030;7.110;2023-04-28T02:40:58;100498.16;;;8.92;55.89
34961;BME280;30789;52.030;7.110;2023-04-28T02:43:25;100493.81;;;8.91;55.81
34961;BME280;30789;52.030;7.110;2023-04-28T02:45:51;100501.28;;;8.94;55.90
34961;BME280;30789;52.030;7.110;2023-04-28T02:48:18;100500.91;;;8.96;55.89
34961;BME280;30789;52.030;7.110;2023-04-28T02:50:46;100503.41;;;9.11;54.92
34961;BME280;30789;52.030;7.110;2023-04-28T02:53:12;100501.84;;;9.10;55.09
34961;BME280;30789;52.030;7.110;2023-04-28T02:55:39;100497.50;;;9.09;54.94
34961;BME280;30789;52.030;7.110;2023-04-28T02:58:05;100494.28;;;9.00;55.59
34961;BME280;30789;52.030;7.110;2023-04-28T03:00:32;100492.28;;;8.97;56.81
34961;BME280;30789;52.030;7.110;2023-04-28T03:02:58;100496.50;;;8.88;57.30
34961;BME280;30789;52.030;7.110;2023-04-28T03:05:25;100487.41;;;8.80;59.26
34961;BME280;30789;52.030;7.110;2023-04-28T03:07:53;100493.31;;;8.82;60.53
34961;BME280;30789;52.030;7.110;2023-04-28T03:10:19;100492.53;;;8.82;61.93
34961;BME280;30789;52.030;7.110;2023-04-28T03:12:46;100492.53;;;8.82;62.20
34961;BME280;30789;52.030;7.110;2023-04-28T03:15:12;100490.25;;;8.87;62.33
34961;BME280;30789;52.030;7.110;2023-04-28T03:17:38;100481.16;;;8.83;62.44
34961;BME280;30789;52.030;7.110;2023-04-28T03:20:07;100480.41;;;8.86;62.43
34961;BME280;30789;52.030;7.110;2023-04-28T03:22:34;100482.00;;;8.87;63.12
34961;BME280;30789;52.030;7.110;2023-04-28T03:25:02;100485.88;;;8.83;63.38
34961;BME280;30789;52.030;7.110;2023-04-28T03:27:29;100473.34;;;8.85;63.45
34961;BME280;30789;52.030;7.110;2023-04-28T03:29:56;100477.63;;;8.83;62.81
34961;BME280;30789;52.030;7.110;2023-04-28T03:32:22;100473.66;;;8.80;63.03
34961;BME280;30789;52.030;7.110;2023-04-28T03:34:48;100465.84;;;8.82;62.17
34961;BME280;30789;52.030;7.110;2023-04-28T03:37:15;100470.25;;;8.90;61.00
34961;BME280;30789;52.030;7.110;2023-04-28T03:39:41;100469.91;;;8.95;61.27
34961;BME280;30789;52.030;7.110;2023-04-28T03:42:09;100463.94;;;8.90;61.69
34961;BME280;30789;52.030;7.110;2023-04-28T03:44:36;100455.28;;;8.84;62.03
34961;BME280;30789;52.030;7.110;2023-04-28T03:47:02;100454.53;;;8.87;62.48
34961;BME280;30789;52.030;7.110;2023-04-28T03:49:29;100447.78;;;8.81;62.22
34961;BME280;30789;52.030;7.110;2023-04-28T03:51:55;100438.03;;;8.87;62.20
34961;BME280;30789;52.030;7.110;2023-04-28T03:54:22;100425.34;;;8.72;62.70
34961;BME280;30789;52.030;7.110;2023-04-28T03:56:48;100429.72;;;8.80;62.28
34961;BME280;30789;52.030;7.110;2023-04-28T03:59:16;100414.03;;;8.81;62.59
34961;BME280;30789;52.030;7.110;2023-04-28T04:01:42;100414.50;;;8.90;61.86
34961;BME280;30789;52.030;7.110;2023-04-28T04:04:09;100409.84;;;8.97;61.35
34961;BME280;30789;52.030;7.110;2023-04-28T04:06:35;100408.72;;;9.05;61.03
34961;BME280;30789;52.030;7.110;2023-04-28T04:09:02;100405.06;;;8.91;61.39
34961;BME280;30789;52.030;7.110;2023-04-28T04:11:29;100400.66;;;8.79;62.10
34961;BME280;30789;52.030;7.110;2023-04-28T04:13:55;100407.63;;;8.66;63.78
34961;BME280;30789;52.030;7.110;2023-04-28T04:16:23;100405.22;;;9.08;62.69
34961;BME280;30789;52.030;7.110;2023-04-28T04:18:49;100398.84;;;8.97;63.11
34961;BME280;30789;52.030;7.110;2023-04-28T04:21:16;100400.94;;;9.14;63.00
34961;BME280;30789;52.030;7.110;2023-04-28T04:23:42;100398.13;;;9.04;63.83
34961;BME280;30789;52.030;7.110;2023-04-28T04:26:09;100411.47;;;9.05;63.55
34961;BME280;30789;52.030;7.110;2023-04-28T04:28:35;100406.78;;;9.09;63.75
34961;BME280;30789;52.030;7.110;2023-04-28T04:31:02;100408.72;;;9.05;64.04
34961;BME280;30789;52.030;7.110;2023-04-28T04:33:29;100404.75;;;8.99;64.43
34961;BME280;30789;52.030;7.110;2023-04-28T04:35:56;100410.69;;;9.01;64.79
34961;BME280;30789;52.030;7.110;2023-04-28T04:38:22;100409.06;;;9.00;65.07
34961;BME280;30789;52.030;7.110;2023-04-28T04:40:49;100410.94;;;8.86;65.69
34961;BME280;30789;52.030;7.110;2023-04-28T04:43:15;100411.19;;;8.70;66.50
34961;BME280;30789;52.030;7.110;2023-04-28T04:45:42;100414.78;;;8.78;66.91
34961;BME280;30789;52.030;7.110;2023-04-28T04:48:08;100406.50;;;8.74;67.95
34961;BME280;30789;52.030;7.110;2023-04-28T04:50:37;100398.00;;;8.90;67.23
34961;BME280;30789;52.030;7.110;2023-04-28T04:53:03;100391.78;;;8.96;67.59
34961;BME280;30789;52.030;7.110;2023-04-28T04:55:30;100382.44;;;9.08;67.61
34961;BME280;30789;52.030;7.110;2023-04-28T04:57:56;100396.94;;;9.01;67.97
34961;BME280;30789;52.030;7.110;2023-04-28T05:00:23;100394.44;;;8.86;68.44
34961;BME280;30789;52.030;7.110;2023-04-28T05:02:49;100386.22;;;8.89;69.55
34961;BME280;30789;52.030;7.110;2023-04-28T05:05:16;100382.44;;;9.04;69.04
34961;BME280;30789;52.030;7.110;2023-04-28T05:07:44;100387.53;;;9.09;69.08
34961;BME280;30789;52.030;7.110;2023-04-28T05:10:10;100384.84;;;9.13;69.16
34961;BME280;30789;52.030;7.110;2023-04-28T05:12:37;100386.88;;;9.23;69.37
34961;BME280;30789;52.030;7.110;2023-04-28T05:15:04;100389.88;;;9.04;69.86
34961;BME280;30789;52.030;7.110;2023-04-28T05:17:32;100387.13;;;9.04;70.09
34961;BME280;30789;52.030;7.110;2023-04-28T05:19:59;100382.03;;;9.06;70.47
34961;BME280;30789;52.030;7.110;2023-04-28T05:22:25;100372.66;;;9.14;70.31
34961;BME280;30789;52.030;7.110;2023-04-28T05:24:53;100377.38;;;9.17;70.31
34961;BME280;30789;52.030;7.110;2023-04-28T05:27:20;100382.97;;;9.24;70.04
34961;BME280;30789;52.030;7.110;2023-04-28T05:29:46;100382.59;;;9.32;70.30
34961;BME280;30789;52.030;7.110;2023-04-28T05:32:13;100385.81;;;9.41;70.43
34961;BME280;30789;52.030;7.110;2023-04-28T05:34:39;100383.06;;;9.41;71.19
34961;BME280;30789;52.030;7.110;2023-04-28T05:37:06;100381.56;;;9.54;70.31
34961;BME280;30789;52.030;7.110;2023-04-28T05:39:32;100382.03;;;9.67;70.35
34961;BME280;30789;52.030;7.110;2023-04-28T05:42:00;100379.31;;;9.74;70.88
34961;BME280;30789;52.030;7.110;2023-04-28T05:44:29;100377.72;;;9.69;70.94
34961;BME280;30789;52.030;7.110;2023-04-28T05:46:55;100370.28;;;9.73;71.42
34961;BME280;30789;52.030;7.110;2023-04-28T05:49:22;100358.81;;;9.61;71.88
34961;BME280;30789;52.030;7.110;2023-04-28T05:51:48;100358.53;;;9.83;71.29
34961;BME280;30789;52.030;7.110;2023-04-28T05:54:15;100356.94;;;9.86;71.52
34961;BME280;30789;52.030;7.110;2023-04-28T05:56:41;100347.53;;;9.87;72.25
34961;BME280;30789;52.030;7.110;2023-04-28T05:59:09;100355.06;;;10.00;72.47
34961;BME280;30789;52.030;7.110;2023-04-28T06:01:35;100356.59;;;9.94;73.14
34961;BME280;30789;52.030;7.110;2023-04-28T06:04:03;100348.34;;;10.01;73.61
34961;BME280;30789;52.030;7.110;2023-04-28T06:06:29;100341.34;;;10.18;73.55
34961;BME280;30789;52.030;7.110;2023-04-28T06:08:56;100353.94;;;10.15;73.91
34961;BME280;30789;52.030;7.110;2023-04-28T06:11:22;100349.66;;;10.25;73.61
34961;BME280;30789;52.030;7.110;2023-04-28T06:13:49;100344.50;;;10.16;74.50
34961;BME280;30789;52.030;7.110;2023-04-28T06:16:17;100350.06;;;10.38;74.12
34961;BME280;30789;52.030;7.110;2023-04-28T06:18:44;100346.50;;;10.33;74.68
34961;BME280;30789;52.030;7.110;2023-04-28T06:21:10;100342.59;;;10.52;73.66
34961;BME280;30789;52.030;7.110;2023-04-28T06:23:37;100337.09;;;10.63;73.28
34961;BME280;30789;52.030;7.110;2023-04-28T06:26:05;100334.31;;;10.42;74.19
34961;BME280;30789;52.030;7.110;2023-04-28T06:28:31;100337.88;;;10.74;73.28
34961;BME280;30789;52.030;7.110;2023-04-28T06:30:58;100330.78;;;10.76;72.49
34961;BME280;30789;52.030;7.110;2023-04-28T06:33:26;100321.38;;;10.67;72.84
34961;BME280;30789;52.030;7.110;2023-04-28T06:35:52;100313.47;;;10.72;72.86
34961;BME280;30789;52.030;7.110;2023-04-28T06:38:19;100314.25;;;10.76;73.22
34961;BME280;30789;52.030;7.110;2023-04-28T06:40:45;100310.69;;;10.93;72.71
34961;BME280;30789;52.030;7.110;2023-04-28T06:43:12;100315.03;;;10.87;72.47
34961;BME280;30789;52.030;7.110;2023-04-28T06:45:38;100313.06;;;10.74;73.08
34961;BME280;30789;52.030;7.110;2023-04-28T06:48:06;100322.91;;;10.92;72.59
34961;BME280;30789;52.030;7.110;2023-04-28T06:50:33;100326.06;;;10.91;72.16
34961;BME280;30789;52.030;7.110;2023-04-28T06:53:00;100339.84;;;10.98;71.61
34961;BME280;30789;52.030;7.110;2023-04-28T06:55:27;100340.66;;;10.91;71.29
34961;BME280;30789;52.030;7.110;2023-04-28T06:57:54;100343.41;;;10.63;73.07
34961;BME280;30789;52.030;7.110;2023-04-28T07:00:20;100343.78;;;10.55;73.82
34961;BME280;30789;52.030;7.110;2023-04-28T07:02:47;100343.00;;;10.72;73.16
34961;BME280;30789;52.030;7.110;2023-04-28T07:05:13;100332.75;;;10.83;73.03
34961;BME280;30789;52.030;7.110;2023-04-28T07:07:41;100336.31;;;10.80;73.28
34961;BME280;30789;52.030;7.110;2023-04-28T07:10:08;100331.56;;;10.98;72.37
34961;BME280;30789;52.030;7.110;2023-04-28T07:12:35;100337.88;;;10.98;72.35
34961;BME280;30789;52.030;7.110;2023-04-28T07:15:02;100331.56;;;10.87;73.47
34961;BME280;30789;52.030;7.110;2023-04-28T07:17:28;100340.25;;;10.54;74.21
34961;BME280;30789;52.030;7.110;2023-04-28T07:19:55;100346.16;;;10.70;74.53
34961;BME280;30789;52.030;7.110;2023-04-28T07:22:21;100345.34;;;10.87;73.46
34961;BME280;30789;52.030;7.110;2023-04-28T07:24:49;100345.75;;;10.96;73.52
34961;BME280;30789;52.030;7.110;2023-04-28T07:27:16;100352.03;;;11.04;73.12
34961;BME280;30789;52.030;7.110;2023-04-28T07:29:43;100352.06;;;10.93;73.36
34961;BME280;30789;52.030;7.110;2023-04-28T07:32:09;100346.94;;;10.88;73.85
34961;BME280;30789;52.030;7.110;2023-04-28T07:34:36;100351.25;;;10.61;75.51
34961;BME280;30789;52.030;7.110;2023-04-28T07:37:02;100352.47;;;10.99;74.71
34961;BME280;30789;52.030;7.110;2023-04-28T07:39:30;100337.47;;;10.86;75.95
34961;BME280;30789;52.030;7.110;2023-04-28T07:41:59;100326.06;;;10.87;77.01
34961;BME280;30789;52.030;7.110;2023-04-28T07:44:27;100330.81;;;10.87;78.09
34961;BME280;30789;52.030;7.110;2023-04-28T07:46:54;100323.31;;;10.70;79.00
34961;BME280;30789;52.030;7.110;2023-04-28T07:49:21;100312.69;;;10.65;80.17
34961;BME280;30789;52.030;7.110;2023-04-28T07:51:47;100319.38;;;10.99;79.80
34961;BME280;30789;52.030;7.110;2023-04-28T07:54:16;100309.88;;;11.14;79.12
34961;BME280;30789;52.030;7.110;2023-04-28T07:56:42;100312.28;;;11.08;79.45
34961;BME280;30789;52.030;7.110;2023-04-28T07:59:10;100317.00;;;11.08;79.52
34961;BME280;30789;52.030;7.110;2023-04-28T08:01:37;100328.81;;;10.98;80.04
34961;BME280;30789;52.030;7.110;2023-04-28T08:04:03;100332.75;;;11.07;79.41
34961;BME280;30789;52.030;7.110;2023-04-28T08:06:30;100335.91;;;11.09;79.78
34961;BME280;30789;52.030;7.110;2023-04-28T08:08:57;100330.00;;;11.14;79.83
34961;BME280;30789;52.030;7.110;2023-04-28T08:11:23;100327.94;;;11.39;78.92
34961;BME280;30789;52.030;7.110;2023-04-28T08:13:50;100329.09;;;11.49;77.58
34961;BME280;30789;52.030;7.110;2023-04-28T08:16:18;100327.94;;;11.46;77.55
34961;BME280;30789;52.030;7.110;2023-04-28T08:18:46;100325.16;;;11.57;77.89
34961;BME280;30789;52.030;7.110;2023-04-28T08:21:13;100325.97;;;11.40;79.59
34961;BME280;30789;52.030;7.110;2023-04-28T08:23:39;100329.09;;;11.45;79.89
34961;BME280;30789;52.030;7.110;2023-04-28T08:26:06;100326.69;;;11.61;79.16
34961;BME280;30789;52.030;7.110;2023-04-28T08:28:32;100331.06;;;11.66;79.71
34961;BME280;30789;52.030;7.110;2023-04-28T08:30:59;100333.78;;;11.73;78.41
34961;BME280;30789;52.030;7.110;2023-04-28T08:33:27;100332.59;;;11.74;78.32
34961;BME280;30789;52.030;7.110;2023-04-28T08:35:54;100339.63;;;11.85;78.32
34961;BME280;30789;52.030;7.110;2023-04-28T08:38:20;100330.13;;;11.97;78.43
34961;BME280;30789;52.030;7.110;2023-04-28T08:40:49;100331.00;;;11.76;78.06
34961;BME280;30789;52.030;7.110;2023-04-28T08:43:16;100330.97;;;11.83;78.62
34961;BME280;30789;52.030;7.110;2023-04-28T08:45:43;100325.31;;;12.08;77.55
34961;BME280;30789;52.030;7.110;2023-04-28T08:48:16;100318.56;;;12.16;77.95
34961;BME280;30789;52.030;7.110;2023-04-28T08:50:48;100322.13;;;12.20;78.00
34961;BME280;30789;52.030;7.110;2023-04-28T08:53:21;100324.75;;;12.34;77.73
34961;BME280;30789;52.030;7.110;2023-04-28T08:55:49;100323.66;;;12.25;78.74
34961;BME280;30789;52.030;7.110;2023-04-28T08:58:17;100319.28;;;12.31;77.53
34961;BME280;30789;52.030;7.110;2023-04-28T09:00:44;100325.16;;;12.36;78.39
34961;BME280;30789;52.030;7.110;2023-04-28T09:03:10;100322.84;;;12.28;78.59
34961;BME280;30789;52.030;7.110;2023-04-28T09:05:37;100321.16;;;12.44;77.58
34961;BME280;30789;52.030;7.110;2023-04-28T09:08:05;100322.41;;;12.33;78.78
34961;BME280;30789;52.030;7.110;2023-04-28T09:10:32;100314.44;;;12.42;78.45
34961;BME280;30789;52.030;7.110;2023-04-28T09:12:58;100318.41;;;12.44;78.08
34961;BME280;30789;52.030;7.110;2023-04-28T09:15:27;100314.44;;;12.45;78.59
34961;BME280;30789;52.030;7.110;2023-04-28T09:17:53;100302.94;;;13.01;77.95
34961;BME280;30789;52.030;7.110;2023-04-28T09:20:20;100299.69;;;13.47;76.16
34961;BME280;30789;52.030;7.110;2023-04-28T09:22:48;100293.19;;;13.60;75.67
34961;BME280;30789;52.030;7.110;2023-04-28T09:25:16;100296.84;;;13.84;74.37
34961;BME280;30789;52.030;7.110;2023-04-28T09:27:43;100300.06;;;14.09;74.53
34961;BME280;30789;52.030;7.110;2023-04-28T09:30:11;100290.59;;;14.07;73.67
34961;BME280;30789;52.030;7.110;2023-04-28T09:32:37;100283.13;;;14.04;72.15
34961;BME280;30789;52.030;7.110;2023-04-28T09:35:04;100284.09;;;14.17;72.14
34961;BME280;30789;52.030;7.110;2023-04-28T09:37:32;100279.44;;;14.40;72.87
34961;BME280;30789;52.030;7.110;2023-04-28T09:40:04;100283.25;;;14.50;74.13
34961;BME280;30789;52.030;7.110;2023-04-28T09:42:32;100280.41;;;14.99;72.58
34961;BME280;30789;52.030;7.110;2023-04-28T09:44:59;100281.22;;;15.19;71.52
34961;BME280;30789;52.030;7.110;2023-04-28T09:47:27;100288.47;;;15.76;66.72
34961;BME280;30789;52.030;7.110;2023-04-28T09:49:54;100287.94;;;15.81;68.36
34961;BME280;30789;52.030;7.110;2023-04-28T09:52:21;100291.03;;;15.47;67.41
34961;BME280;30789;52.030;7.110;2023-04-28T09:54:49;100280.44;;;15.62;67.54
34961;BME280;30789;52.030;7.110;2023-04-28T09:57:16;100294.84;;;15.92;67.22
34961;BME280;30789;52.030;7.110;2023-04-28T09:59:47;100291.47;;;16.01;65.56
34961;BME280;30789;52.030;7.110;2023-04-28T10:02:15;100290.47;;;16.11;65.77
34961;BME280;30789;52.030;7.110;2023-04-28T10:04:43;100276.16;;;16.12;66.03
34961;BME280;30789;52.030;7.110;2023-04-28T10:07:10;100281.16;;;16.53;65.75
34961;BME280;30789;52.030;7.110;2023-04-28T10:09:37;100285.09;;;16.55;64.33
34961;BME280;30789;52.030;7.110;2023-04-28T10:12:04;100281.78;;;16.44;64.38
34961;BME280;30789;52.030;7.110;2023-04-28T10:14:31;100286.09;;;16.10;65.63
34961;BME280;30789;52.030;7.110;2023-04-28T10:17:00;100284.63;;;16.05;64.63
34961;BME280;30789;52.030;7.110;2023-04-28T10:19:27;100275.66;;;15.98;65.51
34961;BME280;30789;52.030;7.110;2023-04-28T10:22:10;100264.31;;;15.53;67.27
34961;BME280;30789;52.030;7.110;2023-04-28T10:24:54;100266.56;;;15.42;68.03
34961;BME280;30789;52.030;7.110;2023-04-28T10:27:28;100256.06;;;15.69;68.72
34961;BME280;30789;52.030;7.110;2023-04-28T10:30:09;100256.72;;;16.60;64.49
34961;BME280;30789;52.030;7.110;2023-04-28T10:32:37;100261.53;;;17.49;63.25
34961;BME280;30789;52.030;7.110;2023-04-28T10:35:41;100264.06;;;17.15;62.25
34961;BME280;30789;52.030;7.110;2023-04-28T10:38:09;100251.09;;;17.37;61.05
34961;BME280;30789;52.030;7.110;2023-04-28T10:40:37;100247.88;;;17.80;61.34
34961;BME280;30789;52.030;7.110;2023-04-28T10:43:06;100248.56;;;17.84;60.95
34961;BME280;30789;52.030;7.110;2023-04-28T10:45:57;100237.72;;;17.61;60.54
34961;BME280;30789;52.030;7.110;2023-04-28T10:48:53;100240.91;;;17.47;62.44
34961;BME280;30789;52.030;7.110;2023-04-28T10:51:31;100245.25;;;17.19;62.20
34961;BME280;30789;52.030;7.110;2023-04-28T10:54:22;100241.00;;;17.15;64.08
34961;BME280;30789;52.030;7.110;2023-04-28T10:57:15;100231.44;;;17.28;65.00
34961;BME280;30789;52.030;7.110;2023-04-28T10:59:43;100234.81;;;17.36;63.81
34961;BME280;30789;52.030;7.110;2023-04-28T11:02:38;100234.81;;;17.64;61.85
34961;BME280;30789;52.030;7.110;2023-04-28T11:05:16;100233.00;;;17.45;62.42
34961;BME280;30789;52.030;7.110;2023-04-28T11:11:15;100230.81;;;17.08;63.74
34961;BME280;30789;52.030;7.110;2023-04-28T11:13:42;100224.47;;;17.36;63.62
34961;BME280;30789;52.030;7.110;2023-04-28T11:16:13;100223.78;;;17.03;63.88
34961;BME280;30789;52.030;7.110;2023-04-28T11:21:38;100221.72;;;17.20;64.99
34961;BME280;30789;52.030;7.110;2023-04-28T11:24:08;100218.94;;;16.91;65.68
34961;BME280;30789;52.030;7.110;2023-04-28T11:26:36;100219.75;;;16.76;66.54
34961;BME280;30789;52.030;7.110;2023-04-28T11:29:03;100215.66;;;16.16;67.81
34961;BME280;30789;52.030;7.110;2023-04-28T11:31:30;100217.47;;;16.07;69.85
34961;BME280;30789;52.030;7.110;2023-04-28T11:33:59;100209.44;;;16.12;69.70
34961;BME280;30789;52.030;7.110;2023-04-28T11:36:31;100214.38;;;16.05;70.25
34961;BME280;30789;52.030;7.110;2023-04-28T11:39:01;100219.06;;;16.08;68.85
34961;BME280;30789;52.030;7.110;2023-04-28T11:41:31;100222.13;;;15.78;70.28
34961;BME280;30789;52.030;7.110;2023-04-28T11:43:58;100220.06;;;15.62;70.92
34961;BME280;30789;52.030;7.110;2023-04-28T11:46:25;100220.91;;;15.43;71.79
34961;BME280;30789;52.030;7.110;2023-04-28T11:49:00;100226.38;;;15.47;72.17
34961;BME280;30789;52.030;7.110;2023-04-28T11:51:28;100222.66;;;15.14;74.24
34961;BME280;30789;52.030;7.110;2023-04-28T11:53:56;100222.38;;;15.28;75.11
34961;BME280;30789;52.030;7.110;2023-04-28T11:56:24;100220.63;;;15.73;74.67
34961;BME280;30789;52.030;7.110;2023-04-28T11:59:01;100214.22;;;16.28;73.60
34961;BME280;30789;52.030;7.110;2023-04-28T12:01:29;100213.09;;;16.41;72.96
34961;BME280;30789;52.030;7.110;2023-04-28T12:03:56;100205.16;;;16.72;71.29
34961;BME280;30789;52.030;7.110;2023-04-28T12:06:22;100210.31;;;16.41;70.95
34961;BME280;30789;52.030;7.110;2023-04-28T12:08:49;100219.03;;;15.92;72.44
34961;BME280;30789;52.030;7.110;2023-04-28T12:11:16;100229.28;;;15.59;73.42
34961;BME280;30789;52.030;7.110;2023-04-28T12:14:01;100223.81;;;15.56;73.77
34961;BME280;30789;52.030;7.110;2023-04-28T12:16:36;100222.81;;;15.46;74.41
34961;BME280;30789;52.030;7.110;2023-04-28T12:19:04;100227.16;;;15.47;75.14
34961;BME280;30789;52.030;7.110;2023-04-28T12:21:34;100226.81;;;15.45;75.41
34961;BME280;30789;52.030;7.110;2023-04-28T12:24:00;100229.53;;;15.06;76.49
34961;BME280;30789;52.030;7.110;2023-04-28T12:26:27;100226.94;;;14.76;77.87
34961;BME280;30789;52.030;7.110;2023-04-28T12:28:55;100231.75;;;14.72;78.97
34961;BME280;30789;52.030;7.110;2023-04-28T12:31:22;100239.53;;;14.57;80.12
34961;BME280;30789;52.030;7.110;2023-04-28T12:33:48;100236.16;;;14.69;79.52
34961;BME280;30789;52.030;7.110;2023-04-28T12:36:15;100224.66;;;14.71;80.22
34961;BME280;30789;52.030;7.110;2023-04-28T12:38:46;100234.03;;;14.77;81.17
34961;BME280;30789;52.030;7.110;2023-04-28T12:41:13;100234.22;;;14.89;79.67
34961;BME280;30789;52.030;7.110;2023-04-28T12:43:39;100233.94;;;14.61;81.64
34961;BME280;30789;52.030;7.110;2023-04-28T12:46:10;100237.66;;;14.51;81.96
34961;BME280;30789;52.030;7.110;2023-04-28T12:48:38;100230.84;;;14.32;83.58
34961;BME280;30789;52.030;7.110;2023-04-28T12:51:05;100225.53;;;14.41;82.69
34961;BME280;30789;52.030;7.110;2023-04-28T12:53:33;100242.50;;;14.47;82.70
34961;BME280;30789;52.030;7.110;2023-04-28T12:55:59;100234.34;;;14.59;81.70
34961;BME280;30789;52.030;7.110;2023-04-28T12:58:26;100230.19;;;14.48;82.12
34961;BME280;30789;52.030;7.110;2023-04-28T13:00:52;100233.16;;;14.60;81.63
34961;BME280;30789;52.030;7.110;2023-04-28T13:03:20;100225.69;;;14.57;81.44
34961;BME280;30789;52.030;7.110;2023-04-28T13:05:47;100230.81;;;14.59;82.05